sensor_id;sensor_type;location;lat;lon;timestamp;temperature;humidity
73572;DHT22;61854;48.510;-2.770;2024-02-21T00:01:23;10.60;99.90
73572;DHT22;61854;48.510;-2.770;2024-02-21T00:03:48;10.70;99.90
73572;DHT22;61854;48.510;-2.770;2024-02-21T00:06:14;10.60;99.90
73572;DHT22;61854;48.510;-2.770;2024-02-21T00:08:39;10.60;99.90
73572;DHT22;61854;48.510;-2.770;2024-02-21T00:11:05;10.70;99.90
73572;DHT22;61854;48.510;-2.770;2024-02-21T00:13:30;10.60;99.90
73572;DHT22;61854;48.510;-2.770;2024-02-21T00:15:56;10.60;99.90
73572;DHT22;61854;48.510;-2.770;2024-02-21T00:18:22;10.60;99.90
73572;DHT22;61854;48.510;-2.770;2024-02-21T00:20:47;10.70;99.90
73572;DHT22;61854;48.510;-2.770;2024-02-21T00:23:13;10.60;99.90
73572;DHT22;61854;48.510;-2.770;2024-02-21T00:25:38;10.60;99.90
73572;DHT22;61854;48.510;-2.770;2024-02-21T00:28:04;10.60;99.90
73572;DHT22;61854;48.510;-2.770;2024-02-21T00:30:31;10.70;99.90
73572;DHT22;61854;48.510;-2.770;2024-02-21T00:32:56;10.80;99.90
73572;DHT22;61854;48.510;-2.770;2024-02-21T00:35:22;10.70;99.90
73572;DHT22;61854;48.510;-2.770;2024-02-21T00:37:47;10.70;99.90
73572;DHT22;61854;48.510;-2.770;2024-02-21T00:40:13;10.70;99.90
73572;DHT22;61854;48.510;-2.770;2024-02-21T00:42:41;10.70;99.90
73572;DHT22;61854;48.510;-2.770;2024-02-21T00:45:07;10.70;99.90
73572;DHT22;61854;48.510;-2.770;2024-02-21T00:47:33;10.70;99.90
73572;DHT22;61854;48.510;-2.770;2024-02-21T00:49:59;10.70;99.90
73572;DHT22;61854;48.510;-2.770;2024-02-21T00:52:24;10.80;99.90
73572;DHT22;61854;48.510;-2.770;2024-02-21T00:54:50;10.70;99.90
73572;DHT22;61854;48.510;-2.770;2024-02-21T00:57:15;10.80;99.90
73572;DHT22;61854;48.510;-2.770;2024-02-21T00:59:41;10.80;99.90
73572;DHT22;61854;48.510;-2.770;2024-02-21T01:02:07;10.90;99.90
73572;DHT22;61854;48.510;-2.770;2024-02-21T01:04:32;10.80;99.90
73572;DHT22;61854;48.510;-2.770;2024-02-21T01:06:58;10.80;99.90
73572;DHT22;61854;48.510;-2.770;2024-02-21T01:09:23;10.80;99.90
73572;DHT22;61854;48.510;-2.770;2024-02-21T01:11:49;10.90;99.90
73572;DHT22;61854;48.510;-2.770;2024-02-21T01:14:14;10.80;99.90
73572;DHT22;61854;48.510;-2.770;2024-02-21T01:16:40;10.90;99.90
73572;DHT22;61854;48.510;-2.770;2024-02-21T01:19:05;10.90;99.90
73572;DHT22;61854;48.510;-2.770;2024-02-21T01:21:31;10.90;99.90
73572;DHT22;61854;48.510;-2.770;2024-02-21T01:23:56;10.80;99.90
73572;DHT22;61854;48.510;-2.770;2024-02-21T01:26:22;10.80;99.90
73572;DHT22;61854;48.510;-2.770;2024-02-21T01:28:47;10.90;99.90
73572;DHT22;61854;48.510;-2.770;2024-02-21T01:31:13;10.80;99.90
73572;DHT22;61854;48.510;-2.770;2024-02-21T01:33:40;10.90;99.90
73572;DHT22;61854;48.510;-2.770;2024-02-21T01:36:06;11.00;99.90
73572;DHT22;61854;48.510;-2.770;2024-02-21T01:38:32;11.00;99.90
73572;DHT22;61854;48.510;-2.770;2024-02-21T01:40:57;11.10;99.90
73572;DHT22;61854;48.510;-2.770;2024-02-21T01:43:23;11.10;99.90
73572;DHT22;61854;48.510;-2.770;2024-02-21T01:45:49;11.00;99.90
73572;DHT22;61854;48.510;-2.770;2024-02-21T01:48:16;11.10;99.90
73572;DHT22;61854;48.510;-2.770;2024-02-21T01:50:43;11.10;99.90
73572;DHT22;61854;48.510;-2.770;2024-02-21T01:53:09;11.00;99.90
73572;DHT22;61854;48.510;-2.770;2024-02-21T01:55:34;11.00;99.90
73572;DHT22;61854;48.510;-2.770;2024-02-21T01:58:00;11.00;99.90
73572;DHT22;61854;48.510;-2.770;2024-02-21T02:00:26;11.00;99.90
73572;DHT22;61854;48.510;-2.770;2024-02-21T02:02:52;11.00;99.90
73572;DHT22;61854;48.510;-2.770;2024-02-21T02:05:17;11.00;99.90
73572;DHT22;61854;48.510;-2.770;2024-02-21T02:07:46;11.10;99.90
73572;DHT22;61854;48.510;-2.770;2024-02-21T02:10:12;11.10;99.90
73572;DHT22;61854;48.510;-2.770;2024-02-21T02:12:37;11.20;99.90
73572;DHT22;61854;48.510;-2.770;2024-02-21T02:15:03;11.20;99.90
73572;DHT22;61854;48.510;-2.770;2024-02-21T02:17:31;11.20;99.90
73572;DHT22;61854;48.510;-2.770;2024-02-21T02:19:57;11.10;99.90
73572;DHT22;61854;48.510;-2.770;2024-02-21T02:22:23;11.10;99.90
73572;DHT22;61854;48.510;-2.770;2024-02-21T02:24:50;11.10;99.90
73572;DHT22;61854;48.510;-2.770;2024-02-21T02:27:16;11.10;99.90
73572;DHT22;61854;48.510;-2.770;2024-02-21T02:29:41;11.10;99.90
73572;DHT22;61854;48.510;-2.770;2024-02-21T02:32:07;11.10;99.90
73572;DHT22;61854;48.510;-2.770;2024-02-21T02:34:32;11.10;99.90
73572;DHT22;61854;48.510;-2.770;2024-02-21T02:36:58;11.10;99.90
73572;DHT22;61854;48.510;-2.770;2024-02-21T02:39:23;11.00;99.90
73572;DHT22;61854;48.510;-2.770;2024-02-21T02:41:49;11.00;99.90
73572;DHT22;61854;48.510;-2.770;2024-02-21T02:44:14;11.00;99.90
73572;DHT22;61854;48.510;-2.770;2024-02-21T02:46:40;10.90;99.90
73572;DHT22;61854;48.510;-2.770;2024-02-21T02:49:06;11.00;99.90
73572;DHT22;61854;48.510;-2.770;2024-02-21T02:51:32;10.90;99.90
73572;DHT22;61854;48.510;-2.770;2024-02-21T02:53:57;11.00;99.90
73572;DHT22;61854;48.510;-2.770;2024-02-21T02:56:23;11.00;99.90
73572;DHT22;61854;48.510;-2.770;2024-02-21T02:58:48;11.10;99.90
73572;DHT22;61854;48.510;-2.770;2024-02-21T03:01:14;11.10;99.90
73572;DHT22;61854;48.510;-2.770;2024-02-21T03:03:40;11.00;99.90
73572;DHT22;61854;48.510;-2.770;2024-02-21T03:06:05;11.10;99.90
73572;DHT22;61854;48.510;-2.770;2024-02-21T03:08:31;11.10;99.90
73572;DHT22;61854;48.510;-2.770;2024-02-21T03:10:58;11.00;99.90
73572;DHT22;61854;48.510;-2.770;2024-02-21T03:13:25;11.10;99.90
73572;DHT22;61854;48.510;-2.770;2024-02-21T03:15:50;11.10;99.90
73572;DHT22;61854;48.510;-2.770;2024-02-21T03:18:16;11.00;99.90
73572;DHT22;61854;48.510;-2.770;2024-02-21T03:20:41;11.00;99.90
73572;DHT22;61854;48.510;-2.770;2024-02-21T03:23:07;10.90;99.90
73572;DHT22;61854;48.510;-2.770;2024-02-21T03:25:32;11.10;99.90
73572;DHT22;61854;48.510;-2.770;2024-02-21T03:27:58;11.00;99.90
73572;DHT22;61854;48.510;-2.770;2024-02-21T03:30:23;11.10;99.90
73572;DHT22;61854;48.510;-2.770;2024-02-21T03:32:49;11.00;99.90
73572;DHT22;61854;48.510;-2.770;2024-02-21T03:35:14;11.00;99.90
73572;DHT22;61854;48.510;-2.770;2024-02-21T03:37:40;11.10;99.90
73572;DHT22;61854;48.510;-2.770;2024-02-21T03:40:06;11.20;99.90
73572;DHT22;61854;48.510;-2.770;2024-02-21T03:42:32;11.10;99.90
73572;DHT22;61854;48.510;-2.770;2024-02-21T03:44:57;11.10;99.90
73572;DHT22;61854;48.510;-2.770;2024-02-21T03:47:23;11.10;99.90
73572;DHT22;61854;48.510;-2.770;2024-02-21T03:49:49;11.10;99.90
73572;DHT22;61854;48.510;-2.770;2024-02-21T03:52:15;11.10;99.90
73572;DHT22;61854;48.510;-2.770;2024-02-21T03:54:40;11.20;99.90
73572;DHT22;61854;48.510;-2.770;2024-02-21T03:57:05;11.20;99.90
73572;DHT22;61854;48.510;-2.770;2024-02-21T03:59:31;11.00;99.90
73572;DHT22;61854;48.510;-2.770;2024-02-21T04:01:57;11.00;99.90
73572;DHT22;61854;48.510;-2.770;2024-02-21T04:04:22;11.10;99.90
73572;DHT22;61854;48.510;-2.770;2024-02-21T04:06:48;11.20;99.90
73572;DHT22;61854;48.510;-2.770;2024-02-21T04:09:14;11.20;99.90
73572;DHT22;61854;48.510;-2.770;2024-02-21T04:11:40;11.20;99.90
73572;DHT22;61854;48.510;-2.770;2024-02-21T04:14:05;11.20;99.90
73572;DHT22;61854;48.510;-2.770;2024-02-21T04:16:31;11.20;99.90
73572;DHT22;61854;48.510;-2.770;2024-02-21T04:18:56;11.20;99.90
73572;DHT22;61854;48.510;-2.770;2024-02-21T04:21:22;11.20;99.90
73572;DHT22;61854;48.510;-2.770;2024-02-21T04:23:48;11.20;99.90
73572;DHT22;61854;48.510;-2.770;2024-02-21T04:26:13;11.20;99.90
73572;DHT22;61854;48.510;-2.770;2024-02-21T04:28:39;11.30;99.90
73572;DHT22;61854;48.510;-2.770;2024-02-21T04:31:04;11.30;99.90
73572;DHT22;61854;48.510;-2.770;2024-02-21T04:33:30;11.20;99.90
73572;DHT22;61854;48.510;-2.770;2024-02-21T04:35:55;11.20;99.90
73572;DHT22;61854;48.510;-2.770;2024-02-21T04:38:21;11.10;99.90
73572;DHT22;61854;48.510;-2.770;2024-02-21T04:40:46;11.20;99.90
73572;DHT22;61854;48.510;-2.770;2024-02-21T04:43:12;11.20;99.90
73572;DHT22;61854;48.510;-2.770;2024-02-21T04:45:37;11.20;99.90
73572;DHT22;61854;48.510;-2.770;2024-02-21T04:48:03;11.20;99.90
73572;DHT22;61854;48.510;-2.770;2024-02-21T04:50:28;11.20;99.90
73572;DHT22;61854;48.510;-2.770;2024-02-21T04:52:54;11.10;99.90
73572;DHT22;61854;48.510;-2.770;2024-02-21T04:55:19;11.30;99.90
73572;DHT22;61854;48.510;-2.770;2024-02-21T04:57:45;11.40;99.90
73572;DHT22;61854;48.510;-2.770;2024-02-21T05:00:10;11.40;99.90
73572;DHT22;61854;48.510;-2.770;2024-02-21T05:02:36;11.40;99.90
73572;DHT22;61854;48.510;-2.770;2024-02-21T05:05:02;11.40;99.90
73572;DHT22;61854;48.510;-2.770;2024-02-21T05:07:27;11.40;99.90
73572;DHT22;61854;48.510;-2.770;2024-02-21T05:09:53;11.40;99.90
73572;DHT22;61854;48.510;-2.770;2024-02-21T05:12:19;11.40;99.90
73572;DHT22;61854;48.510;-2.770;2024-02-21T05:14:44;11.40;99.90
73572;DHT22;61854;48.510;-2.770;2024-02-21T05:17:10;11.50;99.90
73572;DHT22;61854;48.510;-2.770;2024-02-21T05:19:35;11.40;99.90
73572;DHT22;61854;48.510;-2.770;2024-02-21T05:22:01;11.40;99.90
73572;DHT22;61854;48.510;-2.770;2024-02-21T05:24:26;11.40;99.90
73572;DHT22;61854;48.510;-2.770;2024-02-21T05:26:53;11.40;99.90
73572;DHT22;61854;48.510;-2.770;2024-02-21T05:29:18;11.50;99.90
73572;DHT22;61854;48.510;-2.770;2024-02-21T05:34:16;11.40;99.90
73572;DHT22;61854;48.510;-2.770;2024-02-21T05:36:41;11.40;99.90
73572;DHT22;61854;48.510;-2.770;2024-02-21T05:39:07;11.30;99.90
73572;DHT22;61854;48.510;-2.770;2024-02-21T05:41:32;11.50;99.90
73572;DHT22;61854;48.510;-2.770;2024-02-21T05:43:58;11.50;99.90
73572;DHT22;61854;48.510;-2.770;2024-02-21T05:46:23;11.40;99.90
73572;DHT22;61854;48.510;-2.770;2024-02-21T05:48:49;11.50;99.90
73572;DHT22;61854;48.510;-2.770;2024-02-21T05:51:15;11.40;99.90
73572;DHT22;61854;48.510;-2.770;2024-02-21T05:53:40;11.40;99.90
73572;DHT22;61854;48.510;-2.770;2024-02-21T05:56:12;11.40;99.90
73572;DHT22;61854;48.510;-2.770;2024-02-21T05:58:38;11.40;99.90
73572;DHT22;61854;48.510;-2.770;2024-02-21T06:01:04;11.40;99.90
73572;DHT22;61854;48.510;-2.770;2024-02-21T06:03:30;11.50;99.90
73572;DHT22;61854;48.510;-2.770;2024-02-21T06:05:55;11.50;99.90
73572;DHT22;61854;48.510;-2.770;2024-02-21T06:08:21;11.50;99.90
73572;DHT22;61854;48.510;-2.770;2024-02-21T06:10:46;11.50;99.90
73572;DHT22;61854;48.510;-2.770;2024-02-21T06:13:13;11.50;99.90
73572;DHT22;61854;48.510;-2.770;2024-02-21T06:15:39;11.40;99.90
73572;DHT22;61854;48.510;-2.770;2024-02-21T06:18:05;11.50;99.90
73572;DHT22;61854;48.510;-2.770;2024-02-21T06:20:30;11.50;99.90
73572;DHT22;61854;48.510;-2.770;2024-02-21T06:22:56;11.50;99.90
73572;DHT22;61854;48.510;-2.770;2024-02-21T06:25:21;11.40;99.90
73572;DHT22;61854;48.510;-2.770;2024-02-21T06:27:46;11.40;99.90
73572;DHT22;61854;48.510;-2.770;2024-02-21T06:30:12;11.40;99.90
73572;DHT22;61854;48.510;-2.770;2024-02-21T06:32:38;11.40;99.90
73572;DHT22;61854;48.510;-2.770;2024-02-21T06:35:04;11.20;99.90
73572;DHT22;61854;48.510;-2.770;2024-02-21T06:37:29;11.30;99.90
73572;DHT22;61854;48.510;-2.770;2024-02-21T06:39:55;11.20;99.90
73572;DHT22;61854;48.510;-2.770;2024-02-21T06:42:21;11.20;99.90
73572;DHT22;61854;48.510;-2.770;2024-02-21T06:44:46;11.20;99.90
73572;DHT22;61854;48.510;-2.770;2024-02-21T06:47:12;11.10;99.90
73572;DHT22;61854;48.510;-2.770;2024-02-21T06:49:38;11.10;99.90
73572;DHT22;61854;48.510;-2.770;2024-02-21T06:52:04;11.10;99.90
73572;DHT22;61854;48.510;-2.770;2024-02-21T06:54:30;11.10;99.90
73572;DHT22;61854;48.510;-2.770;2024-02-21T06:56:55;11.10;99.90
73572;DHT22;61854;48.510;-2.770;2024-02-21T06:59:21;11.10;99.90
73572;DHT22;61854;48.510;-2.770;2024-02-21T07:01:48;11.00;99.90
73572;DHT22;61854;48.510;-2.770;2024-02-21T07:04:13;11.10;99.90
73572;DHT22;61854;48.510;-2.770;2024-02-21T07:06:40;11.10;99.90
73572;DHT22;61854;48.510;-2.770;2024-02-21T07:09:05;11.00;99.90
73572;DHT22;61854;48.510;-2.770;2024-02-21T07:11:31;11.00;99.90
73572;DHT22;61854;48.510;-2.770;2024-02-21T07:13:56;10.90;99.90
73572;DHT22;61854;48.510;-2.770;2024-02-21T07:16:22;10.90;99.90
73572;DHT22;61854;48.510;-2.770;2024-02-21T07:18:47;10.90;99.90
73572;DHT22;61854;48.510;-2.770;2024-02-21T07:21:13;11.00;99.90
73572;DHT22;61854;48.510;-2.770;2024-02-21T07:23:41;10.90;99.90
73572;DHT22;61854;48.510;-2.770;2024-02-21T07:26:07;11.00;99.90
73572;DHT22;61854;48.510;-2.770;2024-02-21T07:28:33;11.10;99.90
73572;DHT22;61854;48.510;-2.770;2024-02-21T07:30:59;11.00;99.90
73572;DHT22;61854;48.510;-2.770;2024-02-21T07:33:24;11.00;99.90
73572;DHT22;61854;48.510;-2.770;2024-02-21T07:35:50;11.00;99.90
73572;DHT22;61854;48.510;-2.770;2024-02-21T07:38:15;11.00;99.90
73572;DHT22;61854;48.510;-2.770;2024-02-21T07:40:46;11.00;99.90
73572;DHT22;61854;48.510;-2.770;2024-02-21T07:43:12;11.00;99.90
73572;DHT22;61854;48.510;-2.770;2024-02-21T07:45:37;11.00;99.90
73572;DHT22;61854;48.510;-2.770;2024-02-21T07:48:07;10.90;99.90
73572;DHT22;61854;48.510;-2.770;2024-02-21T07:50:33;11.00;99.90
73572;DHT22;61854;48.510;-2.770;2024-02-21T07:52:58;11.00;99.90
73572;DHT22;61854;48.510;-2.770;2024-02-21T07:55:24;10.90;99.90
73572;DHT22;61854;48.510;-2.770;2024-02-21T07:57:49;10.90;99.90
73572;DHT22;61854;48.510;-2.770;2024-02-21T08:00:15;11.00;99.90
73572;DHT22;61854;48.510;-2.770;2024-02-21T08:02:45;11.00;99.90
73572;DHT22;61854;48.510;-2.770;2024-02-21T08:05:11;10.90;99.90
73572;DHT22;61854;48.510;-2.770;2024-02-21T08:07:37;11.00;99.90
73572;DHT22;61854;48.510;-2.770;2024-02-21T08:10:03;11.00;99.90
73572;DHT22;61854;48.510;-2.770;2024-02-21T08:12:29;11.00;99.90
73572;DHT22;61854;48.510;-2.770;2024-02-21T08:14:54;11.00;99.90
73572;DHT22;61854;48.510;-2.770;2024-02-21T08:17:20;11.00;99.90
73572;DHT22;61854;48.510;-2.770;2024-02-21T08:19:45;11.10;99.90
73572;DHT22;61854;48.510;-2.770;2024-02-21T08:22:11;11.00;99.90
73572;DHT22;61854;48.510;-2.770;2024-02-21T08:24:37;11.00;99.90
73572;DHT22;61854;48.510;-2.770;2024-02-21T08:27:03;11.00;99.90
73572;DHT22;61854;48.510;-2.770;2024-02-21T08:29:29;11.00;99.90
73572;DHT22;61854;48.510;-2.770;2024-02-21T08:31:55;11.10;99.90
73572;DHT22;61854;48.510;-2.770;2024-02-21T08:34:20;11.00;99.90
73572;DHT22;61854;48.510;-2.770;2024-02-21T08:36:46;11.10;99.90
73572;DHT22;61854;48.510;-2.770;2024-02-21T08:39:11;11.10;99.90
73572;DHT22;61854;48.510;-2.770;2024-02-21T08:41:40;11.10;99.90
73572;DHT22;61854;48.510;-2.770;2024-02-21T08:44:05;11.10;99.90
73572;DHT22;61854;48.510;-2.770;2024-02-21T08:46:32;11.10;99.90
73572;DHT22;61854;48.510;-2.770;2024-02-21T08:48:58;11.10;99.90
73572;DHT22;61854;48.510;-2.770;2024-02-21T08:51:23;11.10;99.90
73572;DHT22;61854;48.510;-2.770;2024-02-21T08:53:49;11.20;99.90
73572;DHT22;61854;48.510;-2.770;2024-02-21T08:56:15;11.10;99.90
73572;DHT22;61854;48.510;-2.770;2024-02-21T08:58:41;11.10;99.90
73572;DHT22;61854;48.510;-2.770;2024-02-21T09:01:07;11.10;99.90
73572;DHT22;61854;48.510;-2.770;2024-02-21T09:03:37;11.10;99.90
73572;DHT22;61854;48.510;-2.770;2024-02-21T09:06:04;11.00;99.90
73572;DHT22;61854;48.510;-2.770;2024-02-21T09:08:30;11.00;99.90
73572;DHT22;61854;48.510;-2.770;2024-02-21T09:10:56;11.00;99.90
73572;DHT22;61854;48.510;-2.770;2024-02-21T09:13:22;11.00;99.90
73572;DHT22;61854;48.510;-2.770;2024-02-21T09:15:49;10.90;99.90
73572;DHT22;61854;48.510;-2.770;2024-02-21T09:18:15;11.00;99.90
73572;DHT22;61854;48.510;-2.770;2024-02-21T09:20:42;10.90;99.90
73572;DHT22;61854;48.510;-2.770;2024-02-21T09:23:08;11.00;99.90
73572;DHT22;61854;48.510;-2.770;2024-02-21T09:25:34;10.90;99.90
73572;DHT22;61854;48.510;-2.770;2024-02-21T09:28:01;10.90;99.90
73572;DHT22;61854;48.510;-2.770;2024-02-21T09:30:29;10.90;99.90
73572;DHT22;61854;48.510;-2.770;2024-02-21T09:32:56;11.00;99.90
73572;DHT22;61854;48.510;-2.770;2024-02-21T09:35:24;11.00;99.90
73572;DHT22;61854;48.510;-2.770;2024-02-21T09:37:52;11.00;99.90
73572;DHT22;61854;48.510;-2.770;2024-02-21T09:40:17;11.00;99.90
73572;DHT22;61854;48.510;-2.770;2024-02-21T09:42:43;11.00;99.90
73572;DHT22;61854;48.510;-2.770;2024-02-21T09:45:21;11.00;99.90
73572;DHT22;61854;48.510;-2.770;2024-02-21T09:50:16;11.10;99.90
73572;DHT22;61854;48.510;-2.770;2024-02-21T09:52:42;11.10;99.90
73572;DHT22;61854;48.510;-2.770;2024-02-21T09:55:08;11.10;99.90
73572;DHT22;61854;48.510;-2.770;2024-02-21T09:57:37;11.10;99.90
73572;DHT22;61854;48.510;-2.770;2024-02-21T10:00:03;11.20;99.90
73572;DHT22;61854;48.510;-2.770;2024-02-21T10:02:32;11.10;99.90
73572;DHT22;61854;48.510;-2.770;2024-02-21T10:04:58;11.10;99.90
73572;DHT22;61854;48.510;-2.770;2024-02-21T10:07:24;11.20;99.90
73572;DHT22;61854;48.510;-2.770;2024-02-21T10:10:03;11.20;99.90
73572;DHT22;61854;48.510;-2.770;2024-02-21T10:12:28;11.20;99.90
73572;DHT22;61854;48.510;-2.770;2024-02-21T10:15:03;11.30;99.90
73572;DHT22;61854;48.510;-2.770;2024-02-21T10:17:29;11.20;99.90
73572;DHT22;61854;48.510;-2.770;2024-02-21T10:19:55;11.30;99.90
73572;DHT22;61854;48.510;-2.770;2024-02-21T10:22:20;11.30;99.90
73572;DHT22;61854;48.510;-2.770;2024-02-21T10:24:51;11.30;99.90
73572;DHT22;61854;48.510;-2.770;2024-02-21T10:27:17;11.30;99.90
73572;DHT22;61854;48.510;-2.770;2024-02-21T10:29:42;11.30;99.90
73572;DHT22;61854;48.510;-2.770;2024-02-21T10:32:14;11.30;99.90
73572;DHT22;61854;48.510;-2.770;2024-02-21T10:34:41;11.20;99.90
73572;DHT22;61854;48.510;-2.770;2024-02-21T10:37:11;11.30;99.90
73572;DHT22;61854;48.510;-2.770;2024-02-21T10:39:40;11.20;99.90
73572;DHT22;61854;48.510;-2.770;2024-02-21T10:42:06;11.20;99.90
73572;DHT22;61854;48.510;-2.770;2024-02-21T10:44:35;11.20;99.90
73572;DHT22;61854;48.510;-2.770;2024-02-21T10:47:03;11.10;99.90
73572;DHT22;61854;48.510;-2.770;2024-02-21T10:49:31;11.10;99.90
73572;DHT22;61854;48.510;-2.770;2024-02-21T10:52:06;11.20;99.90
73572;DHT22;61854;48.510;-2.770;2024-02-21T10:57:01;11.10;99.90
73572;DHT22;61854;48.510;-2.770;2024-02-21T10:59:27;11.00;99.90
73572;DHT22;61854;48.510;-2.770;2024-02-21T11:01:55;11.00;99.90
73572;DHT22;61854;48.510;-2.770;2024-02-21T11:04:21;11.00;99.90
73572;DHT22;61854;48.510;-2.770;2024-02-21T11:06:47;10.90;99.90
73572;DHT22;61854;48.510;-2.770;2024-02-21T11:09:12;10.80;99.90
73572;DHT22;61854;48.510;-2.770;2024-02-21T11:11:39;10.90;99.90
73572;DHT22;61854;48.510;-2.770;2024-02-21T11:14:08;10.90;99.90
73572;DHT22;61854;48.510;-2.770;2024-02-21T11:16:35;10.80;99.90
73572;DHT22;61854;48.510;-2.770;2024-02-21T11:19:04;10.70;99.90
73572;DHT22;61854;48.510;-2.770;2024-02-21T11:21:33;10.70;99.90
73572;DHT22;61854;48.510;-2.770;2024-02-21T11:24:00;10.80;99.90
73572;DHT22;61854;48.510;-2.770;2024-02-21T11:26:27;10.70;99.90
73572;DHT22;61854;48.510;-2.770;2024-02-21T11:29:00;10.70;99.90
73572;DHT22;61854;48.510;-2.770;2024-02-21T11:31:26;10.70;99.90
73572;DHT22;61854;48.510;-2.770;2024-02-21T11:33:54;10.70;99.90
73572;DHT22;61854;48.510;-2.770;2024-02-21T11:36:24;10.80;99.90
73572;DHT22;61854;48.510;-2.770;2024-02-21T11:38:50;10.70;99.90
73572;DHT22;61854;48.510;-2.770;2024-02-21T11:41:16;10.70;99.90
73572;DHT22;61854;48.510;-2.770;2024-02-21T11:43:41;10.80;99.90
73572;DHT22;61854;48.510;-2.770;2024-02-21T11:46:07;10.80;99.90
73572;DHT22;61854;48.510;-2.770;2024-02-21T11:48:32;10.90;99.90
73572;DHT22;61854;48.510;-2.770;2024-02-21T11:50:58;10.90;99.90
73572;DHT22;61854;48.510;-2.770;2024-02-21T11:53:25;11.00;99.90
73572;DHT22;61854;48.510;-2.770;2024-02-21T11:55:56;11.20;99.90
73572;DHT22;61854;48.510;-2.770;2024-02-21T11:58:22;11.20;99.90
73572;DHT22;61854;48.510;-2.770;2024-02-21T12:00:48;11.10;99.90
73572;DHT22;61854;48.510;-2.770;2024-02-21T12:03:14;11.10;99.90
73572;DHT22;61854;48.510;-2.770;2024-02-21T12:05:40;11.10;99.90
73572;DHT22;61854;48.510;-2.770;2024-02-21T12:08:06;11.20;99.90
73572;DHT22;61854;48.510;-2.770;2024-02-21T12:10:31;11.20;99.90
73572;DHT22;61854;48.510;-2.770;2024-02-21T12:13:08;11.30;99.90
73572;DHT22;61854;48.510;-2.770;2024-02-21T12:15:33;11.20;99.90
73572;DHT22;61854;48.510;-2.770;2024-02-21T12:17:59;11.20;99.90
73572;DHT22;61854;48.510;-2.770;2024-02-21T12:20:25;11.30;99.90
73572;DHT22;61854;48.510;-2.770;2024-02-21T12:22:50;11.30;99.90
73572;DHT22;61854;48.510;-2.770;2024-02-21T12:25:20;11.40;99.90
73572;DHT22;61854;48.510;-2.770;2024-02-21T12:27:48;11.40;99.90
73572;DHT22;61854;48.510;-2.770;2024-02-21T12:30:17;11.40;99.90
73572;DHT22;61854;48.510;-2.770;2024-02-21T12:32:42;11.40;99.90
73572;DHT22;61854;48.510;-2.770;2024-02-21T12:35:08;11.60;99.90
73572;DHT22;61854;48.510;-2.770;2024-02-21T12:37:34;11.60;99.90
73572;DHT22;61854;48.510;-2.770;2024-02-21T12:39:59;11.70;99.90
73572;DHT22;61854;48.510;-2.770;2024-02-21T12:42:25;11.70;99.90
73572;DHT22;61854;48.510;-2.770;2024-02-21T12:44:51;11.60;99.90
73572;DHT22;61854;48.510;-2.770;2024-02-21T12:47:18;11.80;99.90
73572;DHT22;61854;48.510;-2.770;2024-02-21T12:49:45;11.80;99.90
73572;DHT22;61854;48.510;-2.770;2024-02-21T12:52:10;11.70;99.90
73572;DHT22;61854;48.510;-2.770;2024-02-21T12:54:36;12.00;99.90
73572;DHT22;61854;48.510;-2.770;2024-02-21T12:57:01;12.00;99.90
73572;DHT22;61854;48.510;-2.770;2024-02-21T12:59:28;12.10;99.90
73572;DHT22;61854;48.510;-2.770;2024-02-21T13:01:54;12.10;99.90
73572;DHT22;61854;48.510;-2.770;2024-02-21T13:04:20;12.10;99.90
73572;DHT22;61854;48.510;-2.770;2024-02-21T13:06:48;12.10;99.90
73572;DHT22;61854;48.510;-2.770;2024-02-21T13:09:14;12.20;99.90
73572;DHT22;61854;48.510;-2.770;2024-02-21T13:11:40;12.20;99.90
73572;DHT22;61854;48.510;-2.770;2024-02-21T13:14:06;12.30;99.90
73572;DHT22;61854;48.510;-2.770;2024-02-21T13:16:32;12.30;99.90
73572;DHT22;61854;48.510;-2.770;2024-02-21T13:19:08;12.30;99.90
73572;DHT22;61854;48.510;-2.770;2024-02-21T13:21:35;12.30;99.90
73572;DHT22;61854;48.510;-2.770;2024-02-21T13:24:01;12.40;99.90
73572;DHT22;61854;48.510;-2.770;2024-02-21T13:26:26;12.40;99.90
73572;DHT22;61854;48.510;-2.770;2024-02-21T13:28:52;12.50;99.90
73572;DHT22;61854;48.510;-2.770;2024-02-21T13:31:18;12.50;99.90
73572;DHT22;61854;48.510;-2.770;2024-02-21T13:33:43;12.60;99.90
73572;DHT22;61854;48.510;-2.770;2024-02-21T13:36:12;12.70;99.90
73572;DHT22;61854;48.510;-2.770;2024-02-21T13:38:37;12.70;99.90
73572;DHT22;61854;48.510;-2.770;2024-02-21T13:41:04;12.90;99.90
73572;DHT22;61854;48.510;-2.770;2024-02-21T13:43:30;12.90;99.90
73572;DHT22;61854;48.510;-2.770;2024-02-21T13:45:56;12.90;99.90
73572;DHT22;61854;48.510;-2.770;2024-02-21T13:48:23;12.90;99.90
73572;DHT22;61854;48.510;-2.770;2024-02-21T13:50:49;12.90;99.90
73572;DHT22;61854;48.510;-2.770;2024-02-21T13:53:15;13.00;99.90
73572;DHT22;61854;48.510;-2.770;2024-02-21T13:55:46;12.90;99.90
73572;DHT22;61854;48.510;-2.770;2024-02-21T13:58:12;13.00;99.90
73572;DHT22;61854;48.510;-2.770;2024-02-21T14:00:38;13.00;99.90
73572;DHT22;61854;48.510;-2.770;2024-02-21T14:03:03;12.90;99.90
73572;DHT22;61854;48.510;-2.770;2024-02-21T14:05:29;12.90;99.90
73572;DHT22;61854;48.510;-2.770;2024-02-21T14:07:55;13.00;99.90
73572;DHT22;61854;48.510;-2.770;2024-02-21T14:10:21;12.90;99.90
73572;DHT22;61854;48.510;-2.770;2024-02-21T14:12:46;12.90;99.90
73572;DHT22;61854;48.510;-2.770;2024-02-21T14:15:13;13.00;99.90
73572;DHT22;61854;48.510;-2.770;2024-02-21T14:17:38;13.00;99.90
73572;DHT22;61854;48.510;-2.770;2024-02-21T14:20:04;13.00;99.90
73572;DHT22;61854;48.510;-2.770;2024-02-21T14:22:30;12.90;99.90
73572;DHT22;61854;48.510;-2.770;2024-02-21T14:24:56;13.00;99.90
73572;DHT22;61854;48.510;-2.770;2024-02-21T14:27:21;13.10;99.90
73572;DHT22;61854;48.510;-2.770;2024-02-21T14:29:47;13.00;99.90
73572;DHT22;61854;48.510;-2.770;2024-02-21T14:32:12;13.10;99.90
73572;DHT22;61854;48.510;-2.770;2024-02-21T14:34:38;13.20;99.90
73572;DHT22;61854;48.510;-2.770;2024-02-21T14:37:04;13.20;99.90
73572;DHT22;61854;48.510;-2.770;2024-02-21T14:39:29;13.30;99.90
73572;DHT22;61854;48.510;-2.770;2024-02-21T14:41:55;13.30;99.90
73572;DHT22;61854;48.510;-2.770;2024-02-21T14:44:20;13.30;99.90
73572;DHT22;61854;48.510;-2.770;2024-02-21T14:46:46;13.20;99.90
73572;DHT22;61854;48.510;-2.770;2024-02-21T14:49:11;13.20;99.90
73572;DHT22;61854;48.510;-2.770;2024-02-21T14:51:37;13.20;99.90
73572;DHT22;61854;48.510;-2.770;2024-02-21T14:54:02;13.30;99.90
73572;DHT22;61854;48.510;-2.770;2024-02-21T14:56:28;13.20;99.90
73572;DHT22;61854;48.510;-2.770;2024-02-21T14:58:53;13.10;99.90
73572;DHT22;61854;48.510;-2.770;2024-02-21T15:01:19;13.20;99.90
73572;DHT22;61854;48.510;-2.770;2024-02-21T15:03:44;13.30;99.90
73572;DHT22;61854;48.510;-2.770;2024-02-21T15:06:10;13.30;99.90
73572;DHT22;61854;48.510;-2.770;2024-02-21T15:08:37;13.30;99.90
73572;DHT22;61854;48.510;-2.770;2024-02-21T15:11:02;13.30;99.90
73572;DHT22;61854;48.510;-2.770;2024-02-21T15:13:28;13.30;99.90
73572;DHT22;61854;48.510;-2.770;2024-02-21T15:15:57;13.30;99.90